Terminal Aerodrome Forecast
Issued by NWS

Home | Current Version | Previous Version | Text Only | Print | Product List | Glossary On
Versions: 1 2 3 4 5 6 7 8 9 10 11 12 13 14 15 16 17 18 19 20 21 22 23 24 25 26
129
FTUS44 KOUN 261120
TAFLAW
TAF
KLAW 261120Z 2612/2712 16011KT 5SM BR BKN015
     FM261500 17014G20KT P6SM SCT035
      TEMPO 2616/2620 4SM +TSRA BKN025CB
     FM262100 18015G23KT P6SM BKN035 PROB30 2700/2706 TS BKN025CB
     FM270600 15012G18KT 5SM -TSRA BR OVC015CB=

USA.gov is the U.S. government's official web portal to all federal, state and local government web resources and services.